Time;durP1;ratioP1;P1;durP2;ratioP2;P2;SDS_P1;SDS_P2;PMS_P1;PMS_P2;Temp;Humidity;BMP_temperature;BMP_pressure;BME280_temperature;BME280_humidity;BME280_pressure;Samples;Min_cycle;Max_cycle;Signal;HPM_P1;HPM_P2
2023/03/13 00:00:59;;;;;;;12.35;4.80;;;;;;;9.04;79.87;98715.50;5076586;28;20111;-78
2023/03/13 00:03:24;;;;;;;19.75;5.65;;;;;;;9.04;79.99;98713.59;5076860;28;20032;-79
2023/03/13 00:05:55;;;;;;;15.48;4.90;;;;;;;9.11;79.98;98705.94;5077307;28;20035;-79
2023/03/13 00:08:20;;;;;;;11.60;4.50;;;;;;;9.09;80.00;98716.28;5078067;28;20020;-79
2023/03/13 00:10:46;;;;;;;13.80;3.80;;;;;;;9.08;80.20;98705.69;5077583;28;20030;-79
2023/03/13 00:13:11;;;;;;;22.27;3.42;;;;;;;9.06;80.22;98691.56;5078827;28;20252;-79
2023/03/13 00:15:36;;;;;;;22.50;4.83;;;;;;;9.10;80.52;98698.06;5077709;28;20485;-78
2023/03/13 00:18:01;;;;;;;8.77;3.30;;;;;;;9.18;80.42;98699.38;5077754;28;20259;-79
2023/03/13 00:20:27;;;;;;;14.00;3.90;;;;;;;9.24;80.25;98698.25;5078742;28;20496;-79
2023/03/13 00:22:52;;;;;;;14.32;3.72;;;;;;;9.06;80.73;98686.13;5075948;28;20036;-79
2023/03/13 00:25:17;;;;;;;12.63;3.00;;;;;;;9.17;80.52;98682.25;5076052;28;20425;-79
2023/03/13 00:27:43;;;;;;;10.02;3.65;;;;;;;9.21;80.66;98683.31;5075804;28;20049;-79
2023/03/13 00:30:09;;;;;;;13.75;4.00;;;;;;;9.26;80.96;98676.22;5075578;28;20032;-79
2023/03/13 00:32:44;;;;;;;16.20;2.95;;;;;;;9.22;81.32;98668.63;5077472;28;20079;-79
2023/03/13 00:35:10;;;;;;;12.10;3.40;;;;;;;9.23;81.92;98672.16;5076582;28;20713;-79
2023/03/13 00:37:36;;;;;;;12.63;2.92;;;;;;;9.17;82.31;98671.38;5078399;28;20106;-79
2023/03/13 00:40:03;;;;;;;12.55;3.67;;;;;;;9.14;83.26;98662.97;5078636;28;20377;-79
2023/03/13 00:42:28;;;;;;;21.15;5.72;;;;;;;9.09;84.00;98655.69;5078084;28;20115;-79
2023/03/13 00:44:53;;;;;;;18.17;4.53;;;;;;;9.08;84.70;98649.41;5077275;28;20541;-79
2023/03/13 00:47:19;;;;;;;12.13;3.23;;;;;;;9.11;84.82;98635.25;5077572;28;20052;-79
2023/03/13 00:49:44;;;;;;;14.67;5.40;;;;;;;9.15;84.69;98640.94;5078937;28;20258;-79
2023/03/13 00:52:09;;;;;;;11.20;2.90;;;;;;;9.08;85.38;98629.56;5079156;28;20318;-79
2023/03/13 00:54:34;;;;;;;19.92;4.82;;;;;;;9.11;84.85;98618.94;5077489;28;20752;-79
2023/03/13 00:57:00;;;;;;;23.13;3.30;;;;;;;9.08;85.42;98618.69;5078108;28;20149;-79
2023/03/13 00:59:25;;;;;;;23.87;4.43;;;;;;;9.12;85.44;98614.31;5077439;28;20264;-79
2023/03/13 01:01:50;;;;;;;17.88;5.15;;;;;;;9.11;85.04;98618.13;5077627;28;20257;-80
2023/03/13 01:04:15;;;;;;;8.55;2.78;;;;;;;9.16;85.38;98601.78;5078911;28;20052;-80
2023/03/13 01:06:41;;;;;;;18.50;4.13;;;;;;;9.11;85.88;98602.59;5077156;28;20060;-80
2023/03/13 01:09:10;;;;;;;9.70;3.00;;;;;;;9.14;86.57;98595.81;5078231;28;20261;-79
2023/03/13 01:11:38;;;;;;;13.55;4.45;;;;;;;9.03;87.28;98597.00;5076704;28;20025;-80
2023/03/13 01:14:11;;;;;;;14.52;3.67;;;;;;;9.15;87.42;98592.00;5078488;28;20036;-78
2023/03/13 01:16:37;;;;;;;21.55;4.85;;;;;;;9.14;87.65;98581.38;5076354;28;20028;-79
2023/03/13 01:19:08;;;;;;;8.43;3.67;;;;;;;9.02;88.48;98552.66;5078313;28;20036;-79
2023/03/13 01:21:34;;;;;;;9.43;2.33;;;;;;;8.98;88.96;98544.28;5077523;28;20032;-79
2023/03/13 01:24:00;;;;;;;13.40;4.38;;;;;;;9.09;89.26;98549.63;5078481;28;20036;-80
2023/03/13 01:26:25;;;;;;;27.55;4.90;;;;;;;9.16;88.79;98538.41;5077333;28;20469;-80
2023/03/13 01:28:51;;;;;;;17.35;3.35;;;;;;;9.14;89.27;98524.28;5077346;28;20040;-80
2023/03/13 01:31:21;;;;;;;15.70;4.68;;;;;;;9.06;89.73;98523.00;5077162;28;20047;-79
2023/03/13 01:33:48;;;;;;;19.77;5.18;;;;;;;9.02;90.17;98519.22;5076103;28;20131;-79
2023/03/13 01:36:14;;;;;;;17.10;5.13;;;;;;;9.07;90.47;98524.63;5077700;28;20386;-79
2023/03/13 01:38:39;;;;;;;12.23;2.78;;;;;;;9.00;91.40;98527.66;5076769;28;20051;-79
2023/03/13 01:41:06;;;;;;;12.07;3.63;;;;;;;8.97;92.82;98520.09;5077648;28;20024;-80
2023/03/13 01:43:35;;;;;;;17.08;5.05;;;;;;;8.86;94.13;98520.19;5077209;28;20083;-79
2023/03/13 01:46:15;;;;;;;18.45;4.70;;;;;;;8.81;94.83;98513.94;5076937;28;20060;-80
2023/03/13 01:49:07;;;;;;;16.10;4.38;;;;;;;8.81;95.42;98492.19;5075915;28;20152;-80
2023/03/13 01:51:39;;;;;;;10.05;4.32;;;;;;;8.71;95.47;98484.94;5076989;28;20032;-79
2023/03/13 01:54:29;;;;;;;8.15;2.75;;;;;;;8.78;96.48;98477.28;5077258;28;20040;-80
2023/03/13 01:57:03;;;;;;;12.68;3.42;;;;;;;8.73;96.13;98471.88;5076866;28;20028;-79
2023/03/13 01:59:55;;;;;;;19.85;4.20;;;;;;;8.71;97.38;98469.47;5075752;28;20451;-79
2023/03/13 02:02:22;;;;;;;10.82;2.72;;;;;;;8.59;97.78;98460.84;5073303;28;20102;-79
2023/03/13 02:04:54;;;;;;;24.88;4.82;;;;;;;8.71;98.06;98458.59;5077158;28;20061;-80
2023/03/13 02:07:27;;;;;;;13.93;3.58;;;;;;;8.65;98.46;98457.00;5076021;28;20123;-79
2023/03/13 02:09:55;;;;;;;10.85;3.95;;;;;;;8.75;98.91;98443.34;5077002;28;20497;-79
2023/03/13 02:12:29;;;;;;;14.48;4.82;;;;;;;8.82;98.28;98444.91;5075913;28;20971;-78
2023/03/13 02:14:57;;;;;;;15.25;5.78;;;;;;;8.69;99.22;98427.34;5077222;28;20377;-79
2023/03/13 02:17:24;;;;;;;16.35;4.07;;;;;;;8.72;100.00;98438.50;5076197;28;20032;-80
2023/03/13 02:19:53;;;;;;;12.45;3.92;;;;;;;8.66;99.58;98412.47;5075959;28;20398;-79
2023/03/13 02:22:27;;;;;;;18.67;3.58;;;;;;;8.70;100.00;98410.78;5077749;28;20035;-78
2023/03/13 02:25:06;;;;;;;9.85;3.92;;;;;;;8.59;100.00;98401.09;5076652;28;20124;-80
2023/03/13 02:27:31;;;;;;;12.43;2.60;;;;;;;8.71;100.00;98408.88;5075673;28;20039;-79
2023/03/13 02:29:58;;;;;;;8.75;2.72;;;;;;;8.57;100.00;98401.38;5077476;28;20035;-79
2023/03/13 02:32:25;;;;;;;14.50;3.10;;;;;;;8.62;100.00;98392.38;5077218;28;20028;-79
2023/03/13 02:34:54;;;;;;;14.60;4.15;;;;;;;8.64;100.00;98393.69;5077640;28;20029;-79
2023/03/13 02:37:21;;;;;;;11.73;4.25;;;;;;;8.62;100.00;98373.38;5076368;28;20032;-79
2023/03/13 02:39:49;;;;;;;19.58;3.30;;;;;;;8.51;100.00;98361.75;5077041;28;20571;-79
2023/03/13 02:42:18;;;;;;;17.20;4.40;;;;;;;8.59;100.00;98344.84;5077244;28;20070;-79
2023/03/13 02:44:45;;;;;;;11.75;4.32;;;;;;;8.63;100.00;98353.25;5076228;28;20435;-79
2023/03/13 02:47:11;;;;;;;11.52;4.13;;;;;;;8.66;100.00;98352.69;5074812;28;20041;-79
2023/03/13 02:49:36;;;;;;;15.52;5.57;;;;;;;8.70;100.00;98352.91;5075849;28;20495;-79
2023/03/13 02:52:12;;;;;;;11.52;3.42;;;;;;;8.64;100.00;98342.06;5077380;28;20031;-80
2023/03/13 02:54:39;;;;;;;22.52;4.03;;;;;;;8.59;100.00;98342.13;5076500;28;20400;-80
2023/03/13 02:57:05;;;;;;;10.60;4.13;;;;;;;8.63;100.00;98339.66;5077337;28;20032;-79
2023/03/13 02:59:33;;;;;;;12.77;4.50;;;;;;;8.59;100.00;98352.19;5075307;28;20044;-80
2023/03/13 03:01:58;;;;;;;8.82;2.60;;;;;;;8.67;100.00;98339.88;5076407;28;20497;-79
2023/03/13 03:04:25;;;;;;;12.52;3.13;;;;;;;8.68;100.00;98334.19;5075644;28;20036;-79
2023/03/13 03:06:51;;;;;;;12.75;3.97;;;;;;;8.69;100.00;98335.78;5076839;28;20085;-80
2023/03/13 03:09:18;;;;;;;16.25;4.10;;;;;;;8.73;100.00;98331.41;5076552;28;20438;-79
2023/03/13 03:11:44;;;;;;;26.52;4.47;;;;;;;8.72;100.00;98329.81;5078270;28;20112;-79
2023/03/13 03:14:11;;;;;;;20.20;4.15;;;;;;;8.86;100.00;98318.22;5079345;28;20132;-79
2023/03/13 03:16:37;;;;;;;16.35;2.97;;;;;;;8.86;100.00;98327.19;5080267;28;20394;-79
2023/03/13 03:19:03;;;;;;;19.30;4.72;;;;;;;8.70;100.00;98314.88;5080107;28;20036;-78
2023/03/13 03:21:28;;;;;;;10.98;3.00;;;;;;;8.73;100.00;98304.22;5080133;28;20025;-78
2023/03/13 03:23:54;;;;;;;13.85;3.05;;;;;;;8.79;100.00;98298.75;5080304;28;20044;-78
2023/03/13 03:26:19;;;;;;;8.07;2.38;;;;;;;8.80;100.00;98305.78;5080831;28;20036;-79
2023/03/13 03:28:44;;;;;;;13.48;3.33;;;;;;;8.75;100.00;98307.47;5079639;28;20374;-78
2023/03/13 03:31:12;;;;;;;9.23;2.58;;;;;;;8.73;100.00;98298.78;5081717;28;20028;-79
2023/03/13 03:33:37;;;;;;;10.38;2.72;;;;;;;8.73;100.00;98296.09;5080253;28;20031;-79
2023/03/13 03:36:06;;;;;;;9.73;2.15;;;;;;;8.79;100.00;98299.53;5078761;28;20025;-79
2023/03/13 03:38:32;;;;;;;9.18;2.90;;;;;;;8.78;100.00;98300.66;5078980;28;20036;-78
2023/03/13 03:40:57;;;;;;;7.22;2.97;;;;;;;8.82;100.00;98298.97;5079558;28;20033;-78
2023/03/13 03:43:23;;;;;;;8.77;2.38;;;;;;;8.87;100.00;98292.66;5080439;28;20034;-79
2023/03/13 03:45:48;;;;;;;8.32;2.28;;;;;;;8.91;100.00;98280.09;5078826;28;20032;-78
2023/03/13 03:48:13;;;;;;;6.40;1.80;;;;;;;8.92;100.00;98291.78;5079855;28;20028;-79
2023/03/13 03:50:38;;;;;;;5.47;1.70;;;;;;;8.89;100.00;98295.91;5079572;28;20848;-79
2023/03/13 03:53:04;;;;;;;7.20;3.08;;;;;;;8.97;100.00;98287.09;5079865;28;20036;-79
2023/03/13 03:55:29;;;;;;;3.90;2.27;;;;;;;9.01;100.00;98270.22;5078823;28;20404;-79
2023/03/13 03:57:54;;;;;;;5.10;2.70;;;;;;;8.99;100.00;98274.03;5078935;28;20253;-79
2023/03/13 04:00:20;;;;;;;9.03;2.27;;;;;;;9.03;100.00;98284.34;5079695;28;20256;-79
2023/03/13 04:02:46;;;;;;;4.03;1.25;;;;;;;9.09;100.00;98272.31;5078908;28;20299;-79
2023/03/13 04:05:12;;;;;;;5.10;1.75;;;;;;;9.05;100.00;98268.56;5080102;28;20035;-79
2023/03/13 04:07:37;;;;;;;6.60;1.80;;;;;;;9.09;100.00;98280.47;5078402;28;20059;-79
2023/03/13 04:10:04;;;;;;;11.50;2.05;;;;;;;9.16;100.00;98272.75;5079621;28;20070;-79
2023/03/13 04:12:29;;;;;;;4.68;1.20;;;;;;;9.11;100.00;98283.69;5079966;28;20039;-78
2023/03/13 04:14:54;;;;;;;4.35;1.52;;;;;;;9.11;100.00;98278.25;5080410;28;20036;-79
2023/03/13 04:17:19;;;;;;;7.57;2.28;;;;;;;9.09;100.00;98280.47;5079656;28;20036;-79
2023/03/13 04:19:45;;;;;;;7.33;1.00;;;;;;;9.20;100.00;98281.94;5078529;28;20064;-78
2023/03/13 04:22:10;;;;;;;6.13;1.97;;;;;;;9.15;100.00;98284.75;5079394;28;20316;-79
2023/03/13 04:24:35;;;;;;;4.90;1.20;;;;;;;9.05;100.00;98282.16;5078597;28;20344;-78
2023/03/13 04:27:02;;;;;;;6.60;1.42;;;;;;;9.14;100.00;98269.50;5078784;28;20119;-78
2023/03/13 04:29:28;;;;;;;8.10;1.75;;;;;;;9.18;100.00;98275.16;5078735;28;20047;-78
2023/03/13 04:31:53;;;;;;;4.80;0.82;;;;;;;9.20;100.00;98273.78;5079439;28;20088;-79
2023/03/13 04:34:18;;;;;;;6.70;1.77;;;;;;;9.20;100.00;98270.25;5079074;28;20036;-79
2023/03/13 04:36:43;;;;;;;5.63;1.60;;;;;;;9.16;100.00;98264.59;5079126;28;20325;-79
2023/03/13 04:39:09;;;;;;;4.53;0.98;;;;;;;9.26;100.00;98243.78;5080125;28;20601;-79
2023/03/13 04:41:34;;;;;;;3.10;1.50;;;;;;;9.26;100.00;98265.53;5080392;28;20044;-79
2023/03/13 04:43:59;;;;;;;5.23;1.43;;;;;;;9.23;100.00;98248.72;5078682;28;20250;-79
2023/03/13 04:46:24;;;;;;;3.33;1.10;;;;;;;9.23;100.00;98240.56;5078887;28;20299;-79
2023/03/13 04:48:50;;;;;;;7.82;2.30;;;;;;;9.25;100.00;98243.00;5078927;28;20337;-79
2023/03/13 04:51:15;;;;;;;8.07;1.63;;;;;;;9.30;100.00;98251.06;5078661;28;20067;-79
2023/03/13 04:53:40;;;;;;;4.50;1.40;;;;;;;9.31;100.00;98246.44;5078357;28;20254;-79
2023/03/13 04:56:06;;;;;;;4.75;1.60;;;;;;;9.34;100.00;98249.38;5079787;28;20257;-80
2023/03/13 04:58:31;;;;;;;3.72;1.42;;;;;;;9.29;100.00;98237.78;5078235;28;20489;-79
2023/03/13 05:00:56;;;;;;;4.70;2.07;;;;;;;9.31;100.00;98235.56;5078565;28;20458;-79
2023/03/13 05:03:22;;;;;;;4.80;1.63;;;;;;;9.37;100.00;98233.59;5078942;28;20271;-79
2023/03/13 05:05:47;;;;;;;8.38;2.13;;;;;;;9.43;100.00;98233.22;5078981;28;20276;-78
2023/03/13 05:08:13;;;;;;;6.07;1.85;;;;;;;9.41;100.00;98232.72;5077447;28;20028;-78
2023/03/13 05:10:40;;;;;;;3.25;1.73;;;;;;;9.49;100.00;98224.97;5077203;28;20517;-78
2023/03/13 05:13:05;;;;;;;4.57;1.17;;;;;;;9.53;100.00;98228.72;5079082;28;20028;-79
2023/03/13 05:15:30;;;;;;;2.97;1.02;;;;;;;9.53;100.00;98236.88;5076968;28;20714;-79
2023/03/13 05:17:56;;;;;;;4.07;1.83;;;;;;;9.60;100.00;98237.31;5076996;28;20036;-80
2023/03/13 05:20:21;;;;;;;1.98;0.93;;;;;;;9.55;100.00;98221.06;5077829;28;20266;-79
2023/03/13 05:22:46;;;;;;;5.60;1.33;;;;;;;9.65;100.00;98225.53;5078034;28;20032;-79
2023/03/13 05:25:12;;;;;;;3.58;1.02;;;;;;;9.69;100.00;98221.13;5077313;28;20619;-80
2023/03/13 05:27:37;;;;;;;3.53;1.27;;;;;;;9.71;100.00;98215.38;5077075;28;23209;-79
2023/03/13 05:30:02;;;;;;;3.37;1.30;;;;;;;9.74;100.00;98214.81;5078462;28;20053;-80
2023/03/13 05:32:28;;;;;;;5.22;1.63;;;;;;;9.73;100.00;98215.88;5077368;28;20635;-80
2023/03/13 05:34:53;;;;;;;6.82;1.23;;;;;;;9.75;100.00;98219.94;5077632;28;20052;-80
2023/03/13 05:37:18;;;;;;;7.63;1.33;;;;;;;9.80;100.00;98208.16;5076916;28;20033;-79
2023/03/13 05:39:43;;;;;;;3.93;1.07;;;;;;;9.85;100.00;98226.31;5077020;28;20292;-79
2023/03/13 05:42:09;;;;;;;3.13;1.35;;;;;;;9.88;100.00;98232.00;5077619;28;20302;-80
2023/03/13 05:44:34;;;;;;;4.20;1.20;;;;;;;10.00;100.00;98219.81;5077986;28;20486;-79
2023/03/13 05:46:59;;;;;;;3.00;1.30;;;;;;;9.99;100.00;98208.09;5077568;28;20289;-79
2023/03/13 05:49:24;;;;;;;2.37;1.00;;;;;;;10.07;100.00;98216.72;5077563;28;20269;-79
2023/03/13 05:51:50;;;;;;;5.50;2.20;;;;;;;10.01;100.00;98229.59;5076999;28;20281;-79
2023/03/13 05:54:15;;;;;;;6.00;2.10;;;;;;;10.04;100.00;98215.38;5076994;28;20783;-79
2023/03/13 05:56:40;;;;;;;5.03;1.70;;;;;;;10.11;100.00;98217.72;5077205;28;20249;-79
2023/03/13 05:59:05;;;;;;;5.03;2.13;;;;;;;10.07;100.00;98217.50;5077057;28;20059;-79
2023/03/13 06:01:31;;;;;;;6.13;2.73;;;;;;;10.10;100.00;98227.00;5076966;28;20032;-79
2023/03/13 06:03:56;;;;;;;5.13;2.07;;;;;;;10.15;100.00;98226.88;5077023;28;20725;-79
2023/03/13 06:06:21;;;;;;;3.72;1.27;;;;;;;10.14;100.00;98234.28;5076767;28;20265;-79
2023/03/13 06:08:46;;;;;;;3.90;1.77;;;;;;;10.22;100.00;98207.44;5076985;28;20036;-79
2023/03/13 06:11:12;;;;;;;3.95;1.70;;;;;;;10.18;100.00;98196.34;5076028;28;20029;-79
2023/03/13 06:13:37;;;;;;;7.53;1.55;;;;;;;10.18;100.00;98190.09;5076920;28;20119;-79
2023/03/13 06:16:03;;;;;;;3.15;1.33;;;;;;;10.22;100.00;98199.28;5075739;28;20039;-79
2023/03/13 06:18:28;;;;;;;4.30;1.77;;;;;;;10.24;100.00;98194.34;5075690;28;20078;-79
2023/03/13 06:20:58;;;;;;;3.15;1.38;;;;;;;10.29;100.00;98202.44;5076155;28;20045;-79
2023/03/13 06:23:24;;;;;;;3.75;1.00;;;;;;;10.31;100.00;98202.94;5077233;28;20720;-79
2023/03/13 06:25:49;;;;;;;3.47;1.08;;;;;;;10.33;100.00;98197.19;5076035;28;20218;-79
2023/03/13 06:28:15;;;;;;;2.35;0.95;;;;;;;10.34;100.00;98199.59;5076860;28;20488;-79
2023/03/13 06:30:41;;;;;;;2.15;0.90;;;;;;;10.33;100.00;98192.50;5076236;28;20032;-79
2023/03/13 06:33:06;;;;;;;5.80;1.27;;;;;;;10.39;100.00;98194.03;5077011;28;20128;-80
2023/03/13 06:35:31;;;;;;;5.53;1.30;;;;;;;10.51;100.00;98195.50;5074935;28;20036;-79
2023/03/13 06:37:57;;;;;;;1.90;0.80;;;;;;;10.45;100.00;98193.94;5074073;28;20256;-79
2023/03/13 06:40:22;;;;;;;2.47;0.90;;;;;;;10.38;100.00;98199.78;5073974;28;20052;-79
2023/03/13 06:42:47;;;;;;;3.40;0.93;;;;;;;10.46;100.00;98198.28;5075217;28;20257;-79
2023/03/13 06:45:13;;;;;;;3.53;1.33;;;;;;;10.54;100.00;98196.78;5076495;28;20258;-79
2023/03/13 06:47:38;;;;;;;2.95;1.23;;;;;;;10.53;100.00;98201.44;5078422;28;20401;-80
2023/03/13 06:50:03;;;;;;;4.97;1.50;;;;;;;10.65;100.00;98191.94;5081961;28;20139;-80
2023/03/13 06:52:29;;;;;;;4.03;1.15;;;;;;;10.59;100.00;98192.06;5080504;28;20269;-79
2023/03/13 06:54:54;;;;;;;3.08;1.20;;;;;;;10.72;100.00;98193.16;5080402;28;20036;-80
2023/03/13 06:57:19;;;;;;;3.15;1.00;;;;;;;10.72;100.00;98192.34;5079728;28;20040;-80
2023/03/13 06:59:44;;;;;;;3.40;0.93;;;;;;;10.78;100.00;98207.47;5080434;28;20112;-80
2023/03/13 07:02:11;;;;;;;3.00;1.23;;;;;;;10.81;100.00;98201.44;5079172;28;20258;-80
2023/03/13 07:04:36;;;;;;;5.82;1.55;;;;;;;10.83;100.00;98198.41;5080406;28;20257;-80
2023/03/13 07:07:01;;;;;;;2.88;1.17;;;;;;;10.90;100.00;98211.63;5078698;28;20036;-79
2023/03/13 07:09:27;;;;;;;3.30;0.90;;;;;;;10.88;100.00;98192.03;5080151;28;20051;-79
2023/03/13 07:11:52;;;;;;;4.65;1.27;;;;;;;10.85;100.00;98221.53;5080566;28;20443;-80
2023/03/13 07:14:17;;;;;;;8.05;1.17;;;;;;;10.83;100.00;98221.03;5080360;28;20024;-79
2023/03/13 07:16:44;;;;;;;2.05;0.73;;;;;;;10.97;100.00;98209.28;5080138;28;20024;-79
2023/03/13 07:19:09;;;;;;;3.05;1.50;;;;;;;11.03;100.00;98201.78;5079857;28;20044;-79
2023/03/13 07:21:34;;;;;;;3.47;1.80;;;;;;;10.97;100.00;98204.63;5080486;28;20214;-79
2023/03/13 07:24:00;;;;;;;2.00;0.95;;;;;;;11.03;100.00;98212.69;5078535;28;20065;-80
2023/03/13 07:26:25;;;;;;;3.17;0.90;;;;;;;11.14;100.00;98191.47;5079798;28;20052;-78
2023/03/13 07:28:50;;;;;;;4.40;1.20;;;;;;;11.18;100.00;98198.75;5078803;28;20292;-79
2023/03/13 07:31:18;;;;;;;3.63;1.43;;;;;;;11.09;100.00;98197.84;5079845;28;20257;-79
2023/03/13 07:33:44;;;;;;;2.72;1.02;;;;;;;11.25;100.00;98203.75;5079899;28;20658;-80
2023/03/13 07:36:10;;;;;;;4.65;1.45;;;;;;;11.28;99.75;98194.97;5078259;28;20100;-79
2023/03/13 07:38:36;;;;;;;3.83;1.05;;;;;;;11.24;99.14;98174.88;5078653;28;20032;-78
2023/03/13 07:41:01;;;;;;;3.75;1.77;;;;;;;11.28;98.79;98194.16;5078154;28;20154;-79
2023/03/13 07:43:28;;;;;;;5.25;1.55;;;;;;;11.35;98.79;98171.91;5078123;28;20073;-80
2023/03/13 07:46:02;;;;;;;4.32;1.70;;;;;;;11.36;98.90;98177.06;5077757;28;20068;-80
2023/03/13 07:48:39;;;;;;;3.13;1.35;;;;;;;11.33;98.29;98183.94;5078551;28;20273;-79
2023/03/13 07:51:07;;;;;;;4.05;1.55;;;;;;;11.40;97.94;98167.13;5077538;28;20044;-79
2023/03/13 07:53:32;;;;;;;2.72;1.23;;;;;;;11.36;97.82;98157.97;5077855;28;20040;-80
2023/03/13 07:56:00;;;;;;;3.85;1.77;;;;;;;11.36;97.54;98162.59;5078107;28;20026;-80
2023/03/13 07:58:28;;;;;;;2.92;1.30;;;;;;;11.45;97.19;98166.22;5077874;28;20036;-80
2023/03/13 08:00:54;;;;;;;6.97;2.83;;;;;;;11.35;97.06;98155.53;5078455;28;20718;-79
2023/03/13 08:03:20;;;;;;;6.07;1.83;;;;;;;11.56;96.08;98148.47;5079017;28;20314;-79
2023/03/13 08:05:45;;;;;;;5.25;1.58;;;;;;;11.53;95.75;98151.81;5079117;28;20109;-79
2023/03/13 08:08:11;;;;;;;5.35;1.60;;;;;;;11.54;95.31;98152.63;5078606;28;20028;-80
2023/03/13 08:10:36;;;;;;;3.22;1.27;;;;;;;11.53;95.39;98170.91;5079593;28;20060;-79
2023/03/13 08:13:01;;;;;;;15.32;2.33;;;;;;;11.53;95.26;98160.00;5079301;28;20107;-80
2023/03/13 08:15:27;;;;;;;10.60;2.53;;;;;;;11.65;94.59;98158.63;5078978;28;20625;-80
2023/03/13 08:17:53;;;;;;;6.28;1.38;;;;;;;11.62;94.72;98146.41;5079385;28;20036;-80
2023/03/13 08:20:18;;;;;;;6.15;2.50;;;;;;;11.57;93.86;98154.75;5078945;28;20438;-80
2023/03/13 08:22:45;;;;;;;4.10;1.27;;;;;;;11.62;93.71;98145.59;5078652;28;20032;-80
2023/03/13 08:25:11;;;;;;;7.50;3.00;;;;;;;11.56;93.99;98162.13;5078373;28;20172;-80
2023/03/13 08:27:36;;;;;;;4.25;1.60;;;;;;;11.65;93.32;98145.78;5078329;28;20533;-79
2023/03/13 08:30:02;;;;;;;8.77;2.60;;;;;;;11.70;93.00;98147.56;5079134;28;20028;-79
2023/03/13 08:32:27;;;;;;;10.57;4.35;;;;;;;11.61;93.75;98152.19;5078990;28;20032;-80
2023/03/13 08:34:52;;;;;;;7.30;2.35;;;;;;;11.59;93.70;98146.22;5079431;28;20405;-80
2023/03/13 08:37:18;;;;;;;7.67;3.00;;;;;;;11.65;93.55;98151.25;5078522;28;20153;-78
2023/03/13 08:39:44;;;;;;;6.77;1.97;;;;;;;11.58;93.78;98152.78;5078257;28;20280;-80
2023/03/13 08:42:13;;;;;;;4.68;1.85;;;;;;;11.77;93.22;98147.97;5078827;28;20267;-80
2023/03/13 08:44:38;;;;;;;8.13;2.70;;;;;;;11.84;92.60;98149.44;5078597;28;20415;-80
2023/03/13 08:47:05;;;;;;;8.30;2.40;;;;;;;11.71;92.51;98157.41;5074909;28;20044;-80
2023/03/13 08:49:30;;;;;;;6.45;1.88;;;;;;;11.72;92.88;98166.38;5077222;28;20032;-80
2023/03/13 08:51:55;;;;;;;6.70;2.17;;;;;;;11.71;92.90;98164.78;5078527;28;20393;-80
2023/03/13 08:54:21;;;;;;;4.43;2.03;;;;;;;11.63;93.41;98155.41;5078073;28;20262;-80
2023/03/13 08:56:46;;;;;;;7.90;2.80;;;;;;;11.61;93.37;98165.84;5078110;28;20277;-80
2023/03/13 08:59:11;;;;;;;9.55;2.50;;;;;;;11.68;93.94;98169.75;5078822;28;20660;-80
2023/03/13 09:01:36;;;;;;;6.22;2.45;;;;;;;11.76;93.94;98164.63;5077394;28;20505;-80
2023/03/13 09:04:03;;;;;;;5.95;2.17;;;;;;;11.75;93.54;98165.75;5078445;28;20059;-79
2023/03/13 09:06:29;;;;;;;6.80;2.03;;;;;;;11.88;92.53;98166.78;5077750;28;20123;-80
2023/03/13 09:08:56;;;;;;;4.80;1.80;;;;;;;11.61;93.65;98163.91;5076541;28;20127;-80
2023/03/13 09:11:22;;;;;;;7.85;2.45;;;;;;;11.80;92.99;98179.28;5077694;28;20257;-79
2023/03/13 09:13:49;;;;;;;5.83;2.00;;;;;;;11.79;93.27;98178.50;5078386;28;20028;-79
2023/03/13 09:16:16;;;;;;;16.65;2.85;;;;;;;11.87;92.66;98173.38;5078307;28;20261;-79
2023/03/13 09:18:42;;;;;;;6.57;2.90;;;;;;;11.99;92.46;98170.06;5076118;28;20025;-79
2023/03/13 09:21:12;;;;;;;5.45;2.28;;;;;;;11.98;92.36;98163.78;5075100;28;20025;-79
2023/03/13 09:23:37;;;;;;;4.43;2.47;;;;;;;12.22;91.99;98159.13;5076963;28;20036;-79
2023/03/13 09:26:03;;;;;;;6.60;2.05;;;;;;;12.13;91.96;98167.28;5077713;28;20024;-80
2023/03/13 09:28:28;;;;;;;8.23;2.90;;;;;;;12.34;91.27;98164.81;5077200;28;20034;-79
2023/03/13 09:30:54;;;;;;;4.35;2.00;;;;;;;12.44;90.66;98141.03;5077160;28;20496;-79
2023/03/13 09:33:22;;;;;;;4.63;2.00;;;;;;;12.62;89.91;98147.34;5076230;28;20077;-79
2023/03/13 09:35:49;;;;;;;6.57;2.47;;;;;;;12.56;90.69;98149.44;5077497;28;20037;-79
2023/03/13 09:38:19;;;;;;;9.40;3.42;;;;;;;12.42;91.51;98146.00;5076745;28;20500;-79
2023/03/13 09:40:47;;;;;;;4.32;1.48;;;;;;;12.41;91.58;98136.22;5077522;28;20101;-79
2023/03/13 09:43:32;;;;;;;6.88;2.70;;;;;;;12.44;93.00;98141.84;5077477;28;20103;-80
2023/03/13 09:46:00;;;;;;;;;;;;;;;12.41;93.25;98128.78;5078004;28;20043;-79
2023/03/13 09:48:31;;;;;;;3.97;1.73;;;;;;;12.46;93.33;98127.84;5077133;28;19926;-80
2023/03/13 09:51:14;;;;;;;5.32;2.15;;;;;;;12.42;93.46;98127.69;5077583;28;20171;-79
2023/03/13 09:53:56;;;;;;;9.40;3.15;;;;;;;12.43;94.64;98140.22;5077988;28;20035;-79
2023/03/13 09:56:26;;;;;;;10.30;3.10;;;;;;;12.43;94.79;98123.81;5077371;28;20081;-80
2023/03/13 09:59:01;;;;;;;4.95;2.25;;;;;;;12.45;95.60;98107.91;5076647;28;20189;-79
2023/03/13 10:01:30;;;;;;;5.38;1.90;;;;;;;12.61;94.24;98102.78;5077065;28;20028;-79
2023/03/13 10:04:13;;;;;;;4.90;2.20;;;;;;;12.66;93.77;98104.56;5077662;28;20047;-79
2023/03/13 10:06:42;;;;;;;8.75;2.45;;;;;;;12.62;93.45;98117.28;5077589;28;20425;-79
2023/03/13 10:09:19;;;;;;;6.50;2.42;;;;;;;12.69;93.68;98134.00;5076559;28;20032;-80
2023/03/13 10:12:11;;;;;;;7.53;2.38;;;;;;;12.37;94.61;98103.22;5076415;28;20044;-80
2023/03/13 10:14:56;;;;;;;7.15;2.08;;;;;;;12.26;94.98;98098.03;5076961;28;20052;-80
2023/03/13 10:17:30;;;;;;;8.23;2.88;;;;;;;12.48;94.00;98098.28;5076685;28;20024;-79
2023/03/13 10:20:00;;;;;;;5.38;2.22;;;;;;;12.66;93.05;98101.84;5078895;28;20036;-80
2023/03/13 10:22:29;;;;;;;3.90;2.00;;;;;;;12.83;93.03;98097.53;5079965;28;20505;-80
2023/03/13 10:24:59;;;;;;;3.95;1.90;;;;;;;12.96;91.25;98090.28;5080881;28;20473;-80
2023/03/13 10:27:25;;;;;;;5.88;3.00;;;;;;;13.01;90.46;98092.88;5080038;28;20397;-80
2023/03/13 10:29:50;;;;;;;8.25;1.80;;;;;;;13.10;89.58;98103.78;5081884;28;20032;-79
2023/03/13 10:32:17;;;;;;;9.57;2.77;;;;;;;13.16;88.33;98091.56;5080633;28;20032;-80
2023/03/13 10:34:59;;;;;;;3.17;1.60;;;;;;;13.21;88.32;98074.19;5081605;28;20244;-80
2023/03/13 10:37:28;;;;;;;7.00;1.70;;;;;;;13.16;88.50;98098.97;5079601;28;20584;-80
2023/03/13 10:39:54;;;;;;;5.50;2.13;;;;;;;13.15;88.13;98073.53;5080535;28;20040;-80
2023/03/13 10:42:25;;;;;;;3.45;1.52;;;;;;;13.34;86.87;98091.56;5081782;28;20028;-80
2023/03/13 10:44:57;;;;;;;5.03;2.17;;;;;;;13.30;87.19;98063.22;5080228;28;20093;-79
2023/03/13 10:47:22;;;;;;;15.48;2.20;;;;;;;13.31;85.82;98070.28;5079982;28;20266;-80
2023/03/13 10:49:50;;;;;;;4.83;1.60;;;;;;;13.39;86.31;98052.25;5081131;28;20137;-79
2023/03/13 10:52:31;;;;;;;6.95;1.55;;;;;;;13.24;85.88;98050.84;5079573;28;20739;-80
2023/03/13 10:55:10;;;;;;;3.78;1.20;;;;;;;13.38;84.79;98073.31;5079338;28;20560;-80
2023/03/13 10:57:36;;;;;;;4.40;1.52;;;;;;;13.64;83.51;98050.59;5079341;28;20552;-80
2023/03/13 11:00:41;;;;;;;3.47;1.50;;;;;;;13.54;83.31;98040.00;5080868;28;20047;-80
2023/03/13 11:03:19;;;;;;;3.05;1.38;;;;;;;13.58;83.66;98046.44;5037815;28;20063;-80
2023/03/13 11:05:55;;;;;;;7.82;1.95;;;;;;;13.64;83.39;98039.66;5038010;28;20052;-80
2023/03/13 11:08:24;;;;;;;4.03;1.55;;;;;;;13.62;83.56;98043.84;5062055;28;20043;-80
2023/03/13 11:10:51;;;;;;;3.72;1.63;;;;;;;13.61;83.66;98026.59;5079608;28;20494;-80
2023/03/13 11:13:30;;;;;;;5.80;1.50;;;;;;;13.88;82.81;98023.75;5079088;28;20029;-80
2023/03/13 11:16:00;;;;;;;3.30;1.45;;;;;;;13.91;82.47;98025.03;5080680;28;20077;-80
2023/03/13 11:18:46;;;;;;;3.58;1.15;;;;;;;13.80;82.77;98025.41;5077897;28;20075;-80
2023/03/13 11:21:22;;;;;;;9.05;3.28;;;;;;;13.86;81.30;98026.84;5071749;28;20123;-80
2023/03/13 11:23:55;;;;;;;6.40;1.70;;;;;;;13.98;80.04;98019.84;5078991;28;20464;-80
2023/03/13 11:26:37;;;;;;;2.17;1.23;;;;;;;13.99;80.80;98018.72;5078238;28;20513;-80
2023/03/13 11:29:32;;;;;;;1.83;0.85;;;;;;;14.05;81.55;98005.63;5079953;28;20298;-80
2023/03/13 11:32:03;;;;;;;2.33;0.93;;;;;;;14.10;80.67;98019.13;5078204;28;20036;-80
2023/03/13 11:34:55;;;;;;;2.88;1.00;;;;;;;14.02;80.05;98012.56;5079121;28;20377;-80